createdAt,value
2019-04-07T00:01:01.362Z,35.23
2019-04-07T00:03:29.607Z,34.47
2019-04-07T00:05:57.884Z,34.37
2019-04-07T00:08:26.183Z,38.40
2019-04-07T00:10:54.453Z,36.03
2019-04-07T00:13:23.248Z,37.55
2019-04-07T00:15:51.498Z,39.93
2019-04-07T00:18:20.354Z,41.98
2019-04-07T00:20:48.790Z,34.93
2019-04-07T00:23:17.617Z,36.70
2019-04-07T00:25:45.993Z,41.97
2019-04-07T00:28:14.250Z,38.53
2019-04-07T00:30:42.742Z,34.80
2019-04-07T00:33:11.316Z,30.68
2019-04-07T00:35:39.837Z,37.90
2019-04-07T00:38:08.351Z,40.83
2019-04-07T00:40:37.183Z,37.43
2019-04-07T00:43:05.815Z,38.03
2019-04-07T00:45:35.705Z,40.30
2019-04-07T00:48:04.036Z,37.83
2019-04-07T00:50:32.675Z,38.30
2019-04-07T00:53:01.706Z,40.10
2019-04-07T00:55:30.009Z,35.13
2019-04-07T00:57:58.367Z,41.47
2019-04-07T01:00:28.334Z,41.00
2019-04-07T01:02:56.801Z,36.67
2019-04-07T01:05:35.675Z,40.07
2019-04-07T01:07:55.257Z,39.70
2019-04-07T01:10:24.220Z,38.40
2019-04-07T01:12:53.351Z,39.57
2019-04-07T01:15:22.238Z,41.30
2019-04-07T01:17:53.257Z,35.97
2019-04-07T01:20:21.673Z,40.25
2019-04-07T01:22:50.148Z,36.65
2019-04-07T01:25:19.244Z,39.67
2019-04-07T01:27:47.730Z,37.50
2019-04-07T01:30:16.074Z,36.45
2019-04-07T01:32:44.622Z,35.70
2019-04-07T01:35:13.395Z,42.50
2019-04-07T01:37:41.796Z,41.50
2019-04-07T01:40:10.383Z,36.93
2019-04-07T01:42:49.890Z,38.83
2019-04-07T01:45:36.046Z,32.83
2019-04-07T01:48:12.544Z,37.57
2019-04-07T01:50:45.970Z,36.17
2019-04-07T01:53:16.540Z,41.17
2019-04-07T01:55:58.684Z,41.23
2019-04-07T01:58:28.644Z,39.40
2019-04-07T02:01:15.724Z,39.33
2019-04-07T02:03:54.795Z,40.37
2019-04-07T02:06:37.390Z,42.23
2019-04-07T02:09:12.456Z,40.93
2019-04-07T02:11:59.394Z,39.17
2019-04-07T02:14:32.006Z,40.90
2019-04-07T02:17:07.642Z,36.83
2019-04-07T02:19:53.701Z,39.53
2019-04-07T02:22:34.411Z,41.73
2019-04-07T02:25:06.974Z,39.47
2019-04-07T02:27:49.511Z,37.77
2019-04-07T02:30:37.219Z,36.25
2019-04-07T02:33:19.121Z,37.03
2019-04-07T02:35:55.937Z,36.30
2019-04-07T02:38:34.937Z,34.60
2019-04-07T02:41:04.812Z,37.17
2019-04-07T02:43:44.554Z,34.00
2019-04-07T02:46:20.441Z,38.05
2019-04-07T02:48:54.316Z,35.67
2019-04-07T02:51:27.230Z,35.63
2019-04-07T02:54:00.711Z,32.23
2019-04-07T02:56:39.961Z,37.03
2019-04-07T02:59:19.800Z,37.57
2019-04-07T03:01:55.882Z,34.25
2019-04-07T03:04:34.775Z,36.80
2019-04-07T03:07:13.841Z,35.03
2019-04-07T03:09:55.677Z,36.63
2019-04-07T03:12:42.209Z,33.23
2019-04-07T03:15:12.990Z,34.73
2019-04-07T03:17:49.665Z,33.13
2019-04-07T03:20:19.784Z,31.12
2019-04-07T03:23:05.224Z,30.67
2019-04-07T03:25:38.577Z,33.27
2019-04-07T03:28:08.789Z,32.87
2019-04-07T03:30:58.418Z,34.83
2019-04-07T03:33:35.114Z,35.50
2019-04-07T03:36:06.847Z,37.13
2019-04-07T03:38:36.664Z,37.67
2019-04-07T03:41:09.827Z,40.10
2019-04-07T03:43:40.168Z,33.57
2019-04-07T03:46:22.402Z,33.80
2019-04-07T03:48:58.471Z,33.70
2019-04-07T03:51:28.424Z,32.07
2019-04-07T03:54:10.350Z,31.57
2019-04-07T03:56:40.286Z,30.50
2019-04-07T03:59:20.046Z,31.20
2019-04-07T04:01:55.463Z,33.10
2019-04-07T04:04:28.629Z,26.37
2019-04-07T04:07:17.131Z,31.80
2019-04-07T04:09:38.397Z,31.60
2019-04-07T04:12:17.124Z,31.67
2019-04-07T04:14:50.816Z,30.97
2019-04-07T04:17:19.412Z,30.50
2019-04-07T04:19:48.160Z,27.77
2019-04-07T04:22:16.506Z,28.52
2019-04-07T04:24:44.743Z,29.93
2019-04-07T04:27:12.998Z,30.50
2019-04-07T04:29:41.562Z,29.53
2019-04-07T04:32:09.951Z,27.40
2019-04-07T04:34:38.996Z,27.80
2019-04-07T04:37:08.081Z,30.73
2019-04-07T04:39:37.530Z,30.90
2019-04-07T04:42:05.848Z,29.97
2019-04-07T04:44:34.173Z,26.95
2019-04-07T04:47:02.830Z,29.23
2019-04-07T04:49:31.258Z,25.27
2019-04-07T04:52:00.333Z,30.47
2019-04-07T04:54:29.078Z,27.40
2019-04-07T04:56:57.544Z,30.97
2019-04-07T04:59:25.851Z,32.23
2019-04-07T05:01:54.132Z,29.60
2019-04-07T05:04:22.980Z,28.80
2019-04-07T05:06:51.564Z,31.80
2019-04-07T05:09:20.069Z,29.77
2019-04-07T05:11:48.547Z,23.60
2019-04-07T05:14:16.865Z,27.70
2019-04-07T05:16:45.112Z,29.63
2019-04-07T05:19:13.510Z,27.70
2019-04-07T05:21:42.633Z,30.60
2019-04-07T05:24:11.503Z,30.00
2019-04-07T05:26:40.478Z,30.20
2019-04-07T05:29:09.340Z,31.00
2019-04-07T05:31:38.528Z,29.23
2019-04-07T05:34:07.411Z,29.50
2019-04-07T05:36:35.844Z,29.43
2019-04-07T05:39:07.447Z,27.40
2019-04-07T05:41:36.326Z,25.13
2019-04-07T05:44:05.533Z,22.67
2019-04-07T05:46:38.547Z,24.83
2019-04-07T05:49:05.391Z,23.97
2019-04-07T05:51:33.923Z,26.83
2019-04-07T05:54:02.623Z,26.87
2019-04-07T05:56:31.595Z,26.57
2019-04-07T05:59:00.460Z,30.52
2019-04-07T06:01:28.953Z,29.60
2019-04-07T06:03:58.825Z,31.43
2019-04-07T06:06:27.846Z,28.73
2019-04-07T06:08:56.249Z,29.53
2019-04-07T06:11:24.824Z,29.13
2019-04-07T06:13:53.341Z,27.60
2019-04-07T06:16:22.466Z,30.12
2019-04-07T06:18:51.124Z,29.43
2019-04-07T06:21:19.427Z,28.77
2019-04-07T06:23:47.716Z,26.83
2019-04-07T06:26:17.207Z,33.13
2019-04-07T06:28:51.273Z,31.07
2019-04-07T06:31:15.706Z,30.03
2019-04-07T06:33:44.512Z,23.25
2019-04-07T06:36:13.297Z,25.43
2019-04-07T06:38:46.457Z,28.42
2019-04-07T06:41:11.671Z,23.20
2019-04-07T06:43:40.990Z,28.67
2019-04-07T06:46:17.452Z,29.53
2019-04-07T06:48:59.577Z,33.17
2019-04-07T06:51:31.116Z,30.97
2019-04-07T06:54:21.053Z,28.00
2019-04-07T06:56:51.171Z,28.30
2019-04-07T06:59:27.311Z,29.07
2019-04-07T07:02:14.130Z,30.20
2019-04-07T07:04:47.140Z,30.13
2019-04-07T07:07:18.928Z,28.75
2019-04-07T07:09:52.056Z,28.42
2019-04-07T07:12:33.551Z,26.87
2019-04-07T07:15:03.376Z,31.17
2019-04-07T07:17:34.429Z,28.73
2019-04-07T07:20:11.260Z,27.37
2019-04-07T07:22:42.383Z,27.67
2019-04-07T07:25:12.419Z,30.30
2019-04-07T07:27:42.754Z,26.67
2019-04-07T07:30:12.044Z,33.25
2019-04-07T07:32:40.968Z,33.20
2019-04-07T07:35:12.600Z,33.97
2019-04-07T07:37:40.092Z,35.70
2019-04-07T07:40:27.906Z,32.67
2019-04-07T07:42:59.529Z,30.90
2019-04-07T07:45:28.352Z,33.18
2019-04-07T07:47:56.696Z,33.03
2019-04-07T07:50:25.413Z,34.23
2019-04-07T07:52:54.756Z,32.70
2019-04-07T07:55:23.106Z,32.53
2019-04-07T07:57:57.570Z,31.60
2019-04-07T08:00:24.554Z,31.83
2019-04-07T08:02:53.828Z,33.03
2019-04-07T08:05:23.713Z,32.03
2019-04-07T08:07:52.178Z,25.63
2019-04-07T08:10:21.293Z,31.17
2019-04-07T08:12:50.875Z,30.67
2019-04-07T08:15:23.519Z,27.93
2019-04-07T08:17:49.205Z,26.87
2019-04-07T08:20:17.525Z,23.47
2019-04-07T08:22:46.097Z,23.40
2019-04-07T08:25:15.284Z,22.97
2019-04-07T08:27:44.075Z,24.00
2019-04-07T08:30:13.808Z,30.27
2019-04-07T08:32:43.132Z,27.67
2019-04-07T08:35:11.594Z,23.27
2019-04-07T08:37:40.504Z,21.20
2019-04-07T08:40:09.103Z,25.17
2019-04-07T08:42:38.031Z,25.47
2019-04-07T08:45:06.497Z,22.17
2019-04-07T08:47:35.549Z,19.77
2019-04-07T08:50:06.218Z,21.53
2019-04-07T08:52:38.252Z,26.50
2019-04-07T08:55:06.030Z,22.25
2019-04-07T08:57:35.806Z,25.63
2019-04-07T09:00:14.974Z,19.95
2019-04-07T09:02:40.581Z,20.10
2019-04-07T09:05:08.959Z,21.17
2019-04-07T09:07:37.930Z,18.27
2019-04-07T09:10:07.598Z,22.60
2019-04-07T09:12:36.412Z,21.97
2019-04-07T09:15:05.318Z,20.57
2019-04-07T09:17:40.446Z,19.40
2019-04-07T09:20:23.773Z,17.33
2019-04-07T09:22:57.259Z,18.67
2019-04-07T09:25:28.299Z,19.00
2019-04-07T09:28:02.035Z,20.37
2019-04-07T09:30:37.980Z,19.67
2019-04-07T09:33:08.170Z,16.93
2019-04-07T09:35:56.863Z,19.83
2019-04-07T09:38:27.397Z,18.30
2019-04-07T09:41:00.566Z,16.80
2019-04-07T09:43:36.893Z,18.67
2019-04-07T09:46:24.948Z,19.73
2019-04-07T09:49:13.557Z,16.23
2019-04-07T09:51:49.594Z,21.03
2019-04-07T09:54:35.966Z,20.17
2019-04-07T09:57:24.895Z,20.10
2019-04-07T09:59:59.416Z,19.63
2019-04-07T10:02:39.411Z,19.43
2019-04-07T10:05:12.638Z,20.23
2019-04-07T10:07:58.998Z,20.47
2019-04-07T10:10:30.285Z,21.83
2019-04-07T10:13:16.215Z,20.23
2019-04-07T10:15:56.317Z,20.37
2019-04-07T10:18:42.923Z,21.97
2019-04-07T10:21:19.648Z,22.00
2019-04-07T10:23:50.646Z,19.93
2019-04-07T10:26:20.913Z,19.20
2019-04-07T10:29:00.596Z,19.73
2019-04-07T10:31:47.489Z,19.47
2019-04-07T10:34:18.210Z,19.40
2019-04-07T10:37:03.449Z,16.93
2019-04-07T10:39:35.007Z,16.73
2019-04-07T10:42:05.455Z,18.20
2019-04-07T10:44:35.830Z,19.40
2019-04-07T10:47:05.994Z,17.43
2019-04-07T10:49:36.213Z,20.90
2019-04-07T10:52:06.291Z,15.83
2019-04-07T10:54:42.293Z,19.70
2019-04-07T10:57:24.322Z,18.83
2019-04-07T11:00:00.238Z,14.73
2019-04-07T11:02:33.903Z,16.57
2019-04-07T11:05:03.853Z,18.03
2019-04-07T11:07:33.891Z,15.97
2019-04-07T11:10:15.897Z,16.80
2019-04-07T11:13:01.722Z,14.43
2019-04-07T11:15:38.198Z,12.53
2019-04-07T11:18:25.335Z,12.97
2019-04-07T11:20:58.214Z,13.43
2019-04-07T11:23:46.905Z,13.50
2019-04-07T11:26:19.666Z,11.70
2019-04-07T11:28:52.495Z,11.10
2019-04-07T11:31:28.592Z,10.00
2019-04-07T11:33:58.826Z,12.20
2019-04-07T11:36:31.629Z,8.70
2019-04-07T11:39:11.159Z,10.97
2019-04-07T11:41:48.281Z,9.97
2019-04-07T11:44:35.589Z,9.57
2019-04-07T11:47:23.156Z,10.17
2019-04-07T11:50:05.992Z,9.03
2019-04-07T11:52:37.681Z,8.67
2019-04-07T11:55:19.163Z,9.37
2019-04-07T11:58:02.948Z,9.60
2019-04-07T12:00:39.203Z,9.58
2019-04-07T12:03:27.634Z,9.97
2019-04-07T12:05:59.918Z,10.60
2019-04-07T12:08:35.118Z,11.60
2019-04-07T12:11:07.636Z,10.83
2019-04-07T12:13:52.915Z,9.27
2019-04-07T12:16:28.668Z,11.60
2019-04-07T12:18:57.857Z,9.93
2019-04-07T12:21:40.599Z,12.55
2019-04-07T12:24:16.599Z,9.30
2019-04-07T12:27:01.105Z,9.57
2019-04-07T12:29:44.512Z,8.43
2019-04-07T12:32:23.975Z,9.40
2019-04-07T12:35:10.812Z,9.97
2019-04-07T12:37:49.766Z,11.33
2019-04-07T12:40:22.442Z,10.50
2019-04-07T12:42:54.494Z,8.77
2019-04-07T12:45:25.299Z,11.07
2019-04-07T12:47:59.387Z,13.40
2019-04-07T12:50:35.974Z,13.73
2019-04-07T12:53:23.726Z,13.87
